createdAt,value
2017-06-28T00:01:08.206Z,19.30
2017-06-28T00:03:35.436Z,19.30
2017-06-28T00:06:02.709Z,19.30
2017-06-28T00:08:29.180Z,19.30
2017-06-28T00:10:55.849Z,19.30
2017-06-28T00:13:22.362Z,19.30
2017-06-28T00:15:48.857Z,19.30
2017-06-28T00:18:15.422Z,19.30
2017-06-28T00:20:41.960Z,19.30
2017-06-28T00:23:08.460Z,19.30
2017-06-28T00:25:34.950Z,19.30
2017-06-28T00:28:01.391Z,19.30
2017-06-28T00:30:27.882Z,19.30
2017-06-28T00:32:54.750Z,19.30
2017-06-28T00:35:21.466Z,19.30
2017-06-28T00:37:47.935Z,19.30
2017-06-28T00:40:15.193Z,19.20
2017-06-28T00:42:42.496Z,19.20
2017-06-28T00:45:08.981Z,19.20
2017-06-28T00:47:36.242Z,19.20
2017-06-28T00:50:02.726Z,19.10
2017-06-28T00:52:29.226Z,19.10
2017-06-28T00:54:55.738Z,19.10
2017-06-28T00:57:22.248Z,19.10
2017-06-28T00:59:48.941Z,19.00
2017-06-28T01:02:15.438Z,19.00
2017-06-28T01:04:41.937Z,19.00
2017-06-28T01:07:08.480Z,19.00
2017-06-28T01:09:34.951Z,18.90
2017-06-28T01:12:01.623Z,18.90
2017-06-28T01:14:28.117Z,18.90
2017-06-28T01:16:54.584Z,18.90
2017-06-28T01:19:21.150Z,18.90
2017-06-28T01:21:47.637Z,18.90
2017-06-28T01:24:14.089Z,18.80
2017-06-28T01:26:40.604Z,18.80
2017-06-28T01:29:07.089Z,18.80
2017-06-28T01:31:34.609Z,18.80
2017-06-28T01:34:01.120Z,18.80
2017-06-28T01:36:27.643Z,18.90
2017-06-28T01:38:54.220Z,18.90
2017-06-28T01:41:20.756Z,18.90
2017-06-28T01:43:47.264Z,18.90
2017-06-28T01:46:13.992Z,18.90
2017-06-28T01:48:40.536Z,18.90
2017-06-28T01:51:07.101Z,18.90
2017-06-28T01:53:33.671Z,18.90
2017-06-28T01:56:00.179Z,18.80
2017-06-28T01:58:26.668Z,18.90
2017-06-28T02:00:53.168Z,18.80
2017-06-28T02:03:19.714Z,18.80
2017-06-28T02:05:46.201Z,18.80
2017-06-28T02:08:12.709Z,18.80
2017-06-28T02:10:39.235Z,18.70
2017-06-28T02:13:05.706Z,18.70
2017-06-28T02:15:32.271Z,18.70
2017-06-28T02:17:58.744Z,18.70
2017-06-28T02:20:25.220Z,18.60
2017-06-28T02:22:52.469Z,18.60
2017-06-28T02:25:19.691Z,18.60
2017-06-28T02:27:46.221Z,18.60
2017-06-28T02:30:12.718Z,18.60
2017-06-28T02:32:39.208Z,18.60
2017-06-28T02:35:06.505Z,18.60
2017-06-28T02:37:32.999Z,18.50
2017-06-28T02:40:00.232Z,18.50
2017-06-28T02:42:26.942Z,18.50
2017-06-28T02:44:53.401Z,18.50
2017-06-28T02:47:19.900Z,18.50
2017-06-28T02:49:46.516Z,18.50
2017-06-28T02:52:12.968Z,18.50
2017-06-28T02:54:39.469Z,18.50
2017-06-28T02:57:05.978Z,18.50
2017-06-28T02:59:33.190Z,18.60
2017-06-28T03:01:59.709Z,18.50
2017-06-28T03:04:26.234Z,18.50
2017-06-28T03:06:52.789Z,18.60
2017-06-28T03:09:19.518Z,18.60
2017-06-28T03:11:46.017Z,18.50
2017-06-28T03:14:12.515Z,18.60
2017-06-28T03:16:39.243Z,18.60
2017-06-28T03:19:05.743Z,18.60
2017-06-28T03:21:32.215Z,18.50
2017-06-28T03:23:58.700Z,18.60
2017-06-28T03:26:25.207Z,18.50
2017-06-28T03:28:52.464Z,18.60
2017-06-28T03:31:19.695Z,18.50
2017-06-28T03:33:46.939Z,18.60
2017-06-28T03:36:13.423Z,18.50
2017-06-28T03:38:40.063Z,18.50
2017-06-28T03:41:06.554Z,18.50
2017-06-28T03:43:33.831Z,18.60
2017-06-28T03:46:00.385Z,18.50
2017-06-28T03:48:26.867Z,18.50
2017-06-28T03:50:53.368Z,18.60
2017-06-28T03:53:19.883Z,18.60
2017-06-28T03:55:46.393Z,18.60
2017-06-28T03:58:12.866Z,18.60
2017-06-28T04:00:39.399Z,18.70
2017-06-28T04:03:05.873Z,18.70
2017-06-28T04:05:32.378Z,18.70
2017-06-28T04:07:58.894Z,18.70
2017-06-28T04:10:25.380Z,18.70
2017-06-28T04:12:52.167Z,18.70
2017-06-28T04:15:18.662Z,18.80
2017-06-28T04:17:45.189Z,18.70
2017-06-28T04:20:11.710Z,18.70
2017-06-28T04:22:38.927Z,18.80
2017-06-28T04:25:05.399Z,18.80
2017-06-28T04:27:31.942Z,18.80
2017-06-28T04:29:58.417Z,18.80
2017-06-28T04:32:24.941Z,18.90
2017-06-28T04:34:51.440Z,18.90
2017-06-28T04:37:17.925Z,19.00
2017-06-28T04:39:44.509Z,19.00
2017-06-28T04:42:11.018Z,19.10
2017-06-28T04:44:38.525Z,19.20
2017-06-28T04:47:05.011Z,19.20
2017-06-28T04:49:32.247Z,19.30
2017-06-28T04:51:58.779Z,19.30
2017-06-28T04:54:25.253Z,19.40
2017-06-28T04:56:51.937Z,19.50
2017-06-28T04:59:18.421Z,19.60
2017-06-28T05:01:44.855Z,19.70
2017-06-28T05:04:11.495Z,19.80
2017-06-28T05:06:37.986Z,20.00
2017-06-28T05:09:05.208Z,20.40
2017-06-28T05:11:31.756Z,20.40
2017-06-28T05:13:58.230Z,20.50
2017-06-28T05:16:24.775Z,20.60
2017-06-28T05:18:51.284Z,20.70
2017-06-28T05:21:18.520Z,20.90
2017-06-28T05:23:46.035Z,21.00
2017-06-28T05:26:12.501Z,21.00
2017-06-28T05:28:38.953Z,21.10
2017-06-28T05:31:06.222Z,21.30
2017-06-28T05:33:32.695Z,21.30
2017-06-28T05:35:59.167Z,21.50
2017-06-28T05:38:25.688Z,21.70
2017-06-28T05:40:52.191Z,21.80
2017-06-28T05:43:18.645Z,21.80
2017-06-28T05:45:45.162Z,21.80
2017-06-28T05:48:11.655Z,21.90
2017-06-28T05:50:38.434Z,21.90
2017-06-28T05:53:04.899Z,21.90
2017-06-28T05:55:32.109Z,21.80
2017-06-28T05:57:58.625Z,21.80
2017-06-28T06:00:25.109Z,21.80
2017-06-28T06:02:52.338Z,21.80
2017-06-28T06:05:18.835Z,21.80
2017-06-28T06:07:45.301Z,21.90
2017-06-28T06:10:11.922Z,22.00
2017-06-28T06:12:38.432Z,22.30
2017-06-28T06:15:04.916Z,22.60
2017-06-28T06:17:31.409Z,22.90
2017-06-28T06:19:57.919Z,23.10
2017-06-28T06:22:24.455Z,23.20
2017-06-28T06:24:50.959Z,23.20
2017-06-28T06:27:17.418Z,23.20
2017-06-28T06:29:43.926Z,23.20
2017-06-28T06:32:11.142Z,23.40
2017-06-28T06:34:37.610Z,23.40
2017-06-28T06:37:04.923Z,23.40
2017-06-28T06:39:31.439Z,23.30
2017-06-28T06:41:57.926Z,23.30
2017-06-28T06:44:25.311Z,23.20
2017-06-28T06:46:51.801Z,23.20
2017-06-28T06:49:18.279Z,23.10
2017-06-28T06:51:44.850Z,23.00
2017-06-28T06:54:11.325Z,23.00
2017-06-28T06:56:37.839Z,23.00
2017-06-28T06:59:05.058Z,23.50
2017-06-28T07:01:31.535Z,23.50
2017-06-28T07:03:58.073Z,23.80
2017-06-28T07:06:24.546Z,23.90
2017-06-28T07:08:51.046Z,24.00
2017-06-28T07:11:17.561Z,24.20
2017-06-28T07:13:44.034Z,24.60
2017-06-28T07:16:10.558Z,24.90
2017-06-28T07:18:37.043Z,25.30
2017-06-28T07:21:03.542Z,25.70
2017-06-28T07:23:30.283Z,26.00
2017-06-28T07:25:56.815Z,26.30
2017-06-28T07:28:23.294Z,26.60
2017-06-28T07:30:50.806Z,27.20
2017-06-28T07:33:17.287Z,27.20
2017-06-28T07:35:43.801Z,27.50
2017-06-28T07:38:10.398Z,27.80
2017-06-28T07:40:36.877Z,28.10
2017-06-28T07:43:04.098Z,28.50
2017-06-28T07:45:30.607Z,28.40
2017-06-28T07:47:57.102Z,28.60
2017-06-28T07:50:23.873Z,28.70
2017-06-28T07:52:50.368Z,28.80
2017-06-28T07:55:17.593Z,28.90
2017-06-28T07:57:44.094Z,28.90
2017-06-28T08:00:10.611Z,28.60
2017-06-28T08:02:37.119Z,28.30
2017-06-28T08:05:04.339Z,27.90
2017-06-28T08:07:30.835Z,27.90
2017-06-28T08:09:57.332Z,27.70
2017-06-28T08:12:23.777Z,27.30
2017-06-28T08:14:50.315Z,27.10
2017-06-28T08:17:16.788Z,26.90
2017-06-28T08:19:43.283Z,26.60
2017-06-28T08:22:09.859Z,26.50
2017-06-28T08:24:36.349Z,26.50
2017-06-28T08:27:02.821Z,26.90
2017-06-28T08:29:29.447Z,27.00
2017-06-28T08:31:55.972Z,26.80
2017-06-28T08:34:22.428Z,26.60
2017-06-28T08:36:48.928Z,26.30
2017-06-28T08:39:15.393Z,26.10
2017-06-28T08:41:41.861Z,25.90
2017-06-28T08:44:09.135Z,26.10
2017-06-28T08:46:35.620Z,26.10
2017-06-28T08:49:02.109Z,26.20
2017-06-28T08:51:28.635Z,26.10
2017-06-28T08:53:55.130Z,26.00
2017-06-28T08:56:22.504Z,25.40
2017-06-28T08:58:48.989Z,25.40
2017-06-28T09:01:22.477Z,25.00
2017-06-28T09:03:48.946Z,24.70
2017-06-28T09:06:16.157Z,23.90
2017-06-28T09:08:42.664Z,23.80
2017-06-28T09:11:09.166Z,23.40
2017-06-28T09:13:36.410Z,22.60
2017-06-28T09:16:03.675Z,22.30
2017-06-28T09:18:30.945Z,22.00
2017-06-28T09:20:57.464Z,22.00
2017-06-28T09:23:23.971Z,21.80
2017-06-28T09:25:51.179Z,21.30
2017-06-28T09:28:17.913Z,21.30
2017-06-28T09:30:44.410Z,21.10
2017-06-28T09:33:11.621Z,20.80
2017-06-28T09:35:38.154Z,20.80
2017-06-28T09:38:04.608Z,20.70
2017-06-28T09:40:31.845Z,20.50
2017-06-28T09:42:58.357Z,20.50
2017-06-28T09:45:24.824Z,20.40
2017-06-28T09:47:51.325Z,20.40
2017-06-28T09:50:18.066Z,20.40
2017-06-28T09:52:44.528Z,20.40
2017-06-28T09:55:11.741Z,20.40
2017-06-28T09:57:38.274Z,20.40
2017-06-28T10:00:04.779Z,20.40
2017-06-28T10:02:32.073Z,20.30
2017-06-28T10:04:58.523Z,20.30
2017-06-28T10:07:25.002Z,20.40
2017-06-28T10:09:51.521Z,20.50
2017-06-28T10:12:18.026Z,20.60
2017-06-28T10:14:45.284Z,20.70
2017-06-28T10:17:12.544Z,20.80
2017-06-28T10:19:39.037Z,20.80
2017-06-28T10:22:05.592Z,20.90
2017-06-28T10:24:32.839Z,21.10
2017-06-28T10:26:59.328Z,21.10
2017-06-28T10:29:25.854Z,21.20
2017-06-28T10:31:52.346Z,21.40
2017-06-28T10:34:19.853Z,21.50
2017-06-28T10:36:46.344Z,21.50
2017-06-28T10:39:12.831Z,21.60
2017-06-28T10:41:39.390Z,21.80
2017-06-28T10:44:13.023Z,22.10
2017-06-28T10:46:39.806Z,22.30
2017-06-28T10:49:06.269Z,22.50
2017-06-28T10:51:32.765Z,22.60
2017-06-28T10:53:59.315Z,22.80
2017-06-28T10:56:25.777Z,23.10
2017-06-28T10:58:52.978Z,23.80
2017-06-28T11:01:19.496Z,23.80
2017-06-28T11:03:46.030Z,24.10
2017-06-28T11:06:12.577Z,24.30
2017-06-28T11:08:39.096Z,24.40
2017-06-28T11:11:05.591Z,24.30
2017-06-28T11:13:32.836Z,24.00
2017-06-28T11:16:00.068Z,23.90
2017-06-28T11:18:26.778Z,23.90
2017-06-28T11:20:53.249Z,23.90
2017-06-28T11:23:20.457Z,24.00
2017-06-28T11:25:47.207Z,24.00
2017-06-28T11:28:13.697Z,24.10
2017-06-28T11:30:40.157Z,24.10
2017-06-28T11:33:06.653Z,24.30
2017-06-28T11:35:33.111Z,24.50
2017-06-28T11:37:59.631Z,24.50
2017-06-28T11:40:26.107Z,24.40
2017-06-28T11:42:52.616Z,24.40
2017-06-28T11:45:19.131Z,24.30
2017-06-28T11:47:45.636Z,24.40
2017-06-28T11:50:13.037Z,24.50
2017-06-28T11:52:39.514Z,24.50
2017-06-28T11:55:05.985Z,24.60
2017-06-28T11:57:32.480Z,24.70
2017-06-28T11:59:59.708Z,24.80
2017-06-28T12:02:26.233Z,24.80
2017-06-28T12:04:52.746Z,24.80
2017-06-28T12:07:19.213Z,24.80
2017-06-28T12:09:45.822Z,24.70
2017-06-28T12:12:12.273Z,24.70
2017-06-28T12:14:38.782Z,24.60
2017-06-28T12:17:05.315Z,24.60
2017-06-28T12:19:31.794Z,24.50
2017-06-28T12:21:58.316Z,24.50
2017-06-28T12:24:24.769Z,24.40
2017-06-28T12:26:51.356Z,24.40
2017-06-28T12:29:18.101Z,24.40
2017-06-28T12:31:44.605Z,24.40
2017-06-28T12:34:11.101Z,24.40
2017-06-28T12:36:38.386Z,24.20
2017-06-28T12:39:04.853Z,24.20
2017-06-28T12:41:31.326Z,24.10
2017-06-28T12:43:58.577Z,24.20
2017-06-28T12:46:25.051Z,24.10
2017-06-28T12:48:51.781Z,24.30
2017-06-28T12:51:18.404Z,24.30
2017-06-28T12:53:44.890Z,24.40
2017-06-28T12:56:11.414Z,24.40
2017-06-28T12:58:37.886Z,24.40
2017-06-28T13:01:05.241Z,24.50
2017-06-28T13:03:31.738Z,24.50
2017-06-28T13:05:58.204Z,24.50
2017-06-28T13:08:25.454Z,24.50
2017-06-28T13:10:52.672Z,24.50
2017-06-28T13:13:19.143Z,24.50
2017-06-28T13:15:45.675Z,24.40
2017-06-28T13:18:12.176Z,24.50
2017-06-28T13:20:38.647Z,24.50
2017-06-28T13:23:05.277Z,24.50
2017-06-28T13:25:31.813Z,24.50
2017-06-28T13:27:58.285Z,24.60
2017-06-28T13:30:24.903Z,24.60
2017-06-28T13:32:51.406Z,24.70
2017-06-28T13:35:17.907Z,24.70
2017-06-28T13:37:44.410Z,24.70
2017-06-28T13:40:10.913Z,24.70
2017-06-28T13:42:37.424Z,24.80
2017-06-28T13:45:03.897Z,24.80
2017-06-28T13:47:30.374Z,24.90
2017-06-28T13:49:56.909Z,24.90
2017-06-28T13:52:23.406Z,25.00
2017-06-28T13:54:49.919Z,25.00
2017-06-28T13:57:16.449Z,25.00
2017-06-28T13:59:42.932Z,25.10
2017-06-28T14:02:09.405Z,25.00
2017-06-28T14:04:36.169Z,25.00
2017-06-28T14:07:02.618Z,25.00
2017-06-28T14:09:29.109Z,25.00
2017-06-28T14:11:55.618Z,25.00
2017-06-28T14:14:22.821Z,25.10
2017-06-28T14:16:49.280Z,25.00
2017-06-28T14:19:15.795Z,25.10
2017-06-28T14:21:42.264Z,25.10
2017-06-28T14:24:08.867Z,25.10
2017-06-28T14:26:35.399Z,25.10
2017-06-28T14:29:01.852Z,25.20
2017-06-28T14:31:28.554Z,25.20
2017-06-28T14:33:55.004Z,25.20
2017-06-28T14:36:21.490Z,25.10
2017-06-28T14:38:48.015Z,25.10
2017-06-28T14:41:14.489Z,25.00
2017-06-28T14:43:41.235Z,25.00
2017-06-28T14:46:07.713Z,25.10
2017-06-28T14:48:34.929Z,25.10
2017-06-28T14:51:01.542Z,25.00
2017-06-28T14:53:28.017Z,25.00
2017-06-28T14:55:55.215Z,25.00
2017-06-28T14:58:21.740Z,25.00
2017-06-28T15:00:48.213Z,25.00
2017-06-28T15:03:14.690Z,25.00
2017-06-28T15:05:41.216Z,24.90
2017-06-28T15:08:07.693Z,24.90
2017-06-28T15:10:34.426Z,24.90
2017-06-28T15:13:00.896Z,24.90
2017-06-28T15:15:27.360Z,24.80
2017-06-28T15:17:53.860Z,24.70
2017-06-28T15:20:20.341Z,24.70
2017-06-28T15:22:47.089Z,24.70
2017-06-28T15:25:13.565Z,24.60
2017-06-28T15:27:40.358Z,24.50
2017-06-28T15:30:06.871Z,24.50
2017-06-28T15:32:33.355Z,24.50
2017-06-28T15:34:59.834Z,24.50
2017-06-28T15:37:26.365Z,24.40
2017-06-28T15:39:52.835Z,24.40
2017-06-28T15:42:19.357Z,24.30
2017-06-28T15:44:45.827Z,24.30
2017-06-28T15:47:12.529Z,24.30
2017-06-28T15:49:39.035Z,24.30
2017-06-28T15:52:05.513Z,24.30
2017-06-28T15:54:33.365Z,24.30
2017-06-28T15:56:59.851Z,24.20
2017-06-28T15:59:27.052Z,24.10
2017-06-28T16:01:53.573Z,24.10
2017-06-28T16:04:20.065Z,24.10
2017-06-28T16:06:46.549Z,24.10
2017-06-28T16:09:13.073Z,24.10
2017-06-28T16:11:39.565Z,24.10
2017-06-28T16:14:06.830Z,24.10
2017-06-28T16:16:33.339Z,24.00
2017-06-28T16:19:00.702Z,24.00
2017-06-28T16:21:27.223Z,24.00
2017-06-28T16:23:54.439Z,23.90
2017-06-28T16:26:21.048Z,23.90
2017-06-28T16:28:47.565Z,23.90
2017-06-28T16:31:14.798Z,23.80
2017-06-28T16:33:41.408Z,23.70
2017-06-28T16:36:08.769Z,23.60
2017-06-28T16:38:35.268Z,23.60
2017-06-28T16:41:01.764Z,23.60
2017-06-28T16:43:28.223Z,23.50
2017-06-28T16:45:54.731Z,23.50
2017-06-28T16:48:21.246Z,23.50
2017-06-28T16:50:48.468Z,23.40
2017-06-28T16:53:15.195Z,23.30
2017-06-28T16:55:41.690Z,23.30
2017-06-28T16:58:08.226Z,23.30
2017-06-28T17:00:34.781Z,23.30
2017-06-28T17:03:01.306Z,23.30
2017-06-28T17:05:27.847Z,23.30
2017-06-28T17:07:54.362Z,23.30
2017-06-28T17:10:20.977Z,23.30
2017-06-28T17:12:47.465Z,23.30
2017-06-28T17:15:14.398Z,23.20
2017-06-28T17:17:40.937Z,23.20
2017-06-28T17:20:07.421Z,23.20
2017-06-28T17:22:33.980Z,23.20
2017-06-28T17:25:00.561Z,23.20
2017-06-28T17:27:27.073Z,23.20
2017-06-28T17:29:53.589Z,23.20
2017-06-28T17:32:20.185Z,23.20
2017-06-28T17:34:47.455Z,23.20
2017-06-28T17:37:13.992Z,23.20
2017-06-28T17:39:40.522Z,23.10
2017-06-28T17:42:06.989Z,23.10
2017-06-28T17:44:33.449Z,23.10
2017-06-28T17:47:00.061Z,23.10
2017-06-28T17:49:26.546Z,23.10
2017-06-28T17:51:53.280Z,23.10
2017-06-28T17:54:27.466Z,23.00
2017-06-28T17:56:54.961Z,23.00
2017-06-28T17:59:21.470Z,23.00
2017-06-28T18:01:48.716Z,22.90
2017-06-28T18:04:15.996Z,22.90
2017-06-28T18:06:42.478Z,22.90
2017-06-28T18:09:08.983Z,22.90
2017-06-28T18:11:35.631Z,22.90
2017-06-28T18:14:02.221Z,22.80
2017-06-28T18:16:28.709Z,22.80
2017-06-28T18:18:55.248Z,22.70
2017-06-28T18:21:21.719Z,22.70
2017-06-28T18:23:48.229Z,22.70
2017-06-28T18:26:15.481Z,22.70
2017-06-28T18:28:42.756Z,22.60
2017-06-28T18:31:09.265Z,22.60
2017-06-28T18:33:36.469Z,22.50
2017-06-28T18:36:02.977Z,22.50
2017-06-28T18:38:29.499Z,22.50
2017-06-28T18:40:56.005Z,22.50
2017-06-28T18:43:22.485Z,22.40
2017-06-28T18:45:49.013Z,22.40
2017-06-28T18:48:15.545Z,22.40
2017-06-28T18:50:42.016Z,22.40
2017-06-28T18:53:08.557Z,22.30
2017-06-28T18:55:35.145Z,22.30
2017-06-28T18:58:01.693Z,22.30
2017-06-28T19:00:29.364Z,22.20
2017-06-28T19:02:56.107Z,22.20
2017-06-28T19:05:22.635Z,22.20
2017-06-28T19:07:49.141Z,22.10
2017-06-28T19:10:16.412Z,22.00
2017-06-28T19:12:43.698Z,22.00
2017-06-28T19:15:10.436Z,21.90
2017-06-28T19:17:38.009Z,21.80
2017-06-28T19:20:04.477Z,21.80
2017-06-28T19:22:31.194Z,21.70
2017-06-28T19:24:58.262Z,21.70
2017-06-28T19:27:25.266Z,21.70
2017-06-28T19:29:53.132Z,21.60
2017-06-28T19:32:20.692Z,21.60
2017-06-28T19:34:47.840Z,21.60
2017-06-28T19:37:15.435Z,21.60
2017-06-28T19:39:42.918Z,21.50
2017-06-28T19:42:10.516Z,21.40
2017-06-28T19:44:38.813Z,21.40
2017-06-28T19:47:05.906Z,21.30
2017-06-28T19:49:33.948Z,21.20
2017-06-28T19:52:01.601Z,21.20
2017-06-28T19:54:29.192Z,21.20
2017-06-28T19:56:56.195Z,21.20
2017-06-28T19:59:23.907Z,21.10
2017-06-28T20:01:51.071Z,21.00
2017-06-28T20:04:18.672Z,21.00
2017-06-28T20:06:46.262Z,20.90
2017-06-28T20:09:13.305Z,20.90
2017-06-28T20:11:41.075Z,20.80
2017-06-28T20:14:08.798Z,20.70
2017-06-28T20:16:35.760Z,20.70
2017-06-28T20:19:02.881Z,20.60
2017-06-28T20:21:29.765Z,20.50
2017-06-28T20:23:56.699Z,20.50
2017-06-28T20:26:23.285Z,20.50
2017-06-28T20:28:49.820Z,20.40
2017-06-28T20:31:17.156Z,20.30
2017-06-28T20:33:44.543Z,20.30
2017-06-28T20:36:11.054Z,20.20
2017-06-28T20:38:38.269Z,20.10
2017-06-28T20:41:04.778Z,20.10
2017-06-28T20:43:31.265Z,20.10
2017-06-28T20:45:58.542Z,20.00
2017-06-28T20:48:25.061Z,20.00
2017-06-28T20:50:51.533Z,20.00
2017-06-28T20:53:18.063Z,19.90
2017-06-28T20:55:44.598Z,19.90
2017-06-28T20:58:11.144Z,19.90
2017-06-28T21:00:37.668Z,19.90
2017-06-28T21:03:04.143Z,19.80
2017-06-28T21:05:31.407Z,19.80
2017-06-28T21:07:57.884Z,19.80
2017-06-28T21:10:24.362Z,19.80
2017-06-28T21:12:50.887Z,19.80
2017-06-28T21:15:17.316Z,19.70
2017-06-28T21:17:43.801Z,19.70
2017-06-28T21:20:10.334Z,19.70
2017-06-28T21:22:36.837Z,19.70
2017-06-28T21:25:04.110Z,19.50
2017-06-28T21:27:30.576Z,19.50
2017-06-28T21:29:57.078Z,19.50
2017-06-28T21:32:23.827Z,19.50
2017-06-28T21:34:50.295Z,19.40
2017-06-28T21:37:16.752Z,19.40
2017-06-28T21:39:44.241Z,19.30
2017-06-28T21:42:10.717Z,19.30
2017-06-28T21:44:37.155Z,19.30
2017-06-28T21:47:03.658Z,19.30
2017-06-28T21:49:30.107Z,19.30
2017-06-28T21:51:56.774Z,19.30
2017-06-28T21:54:30.930Z,19.30
2017-06-28T21:56:57.565Z,19.20
2017-06-28T21:59:24.064Z,19.30
2017-06-28T22:01:50.528Z,19.20
2017-06-28T22:04:17.047Z,19.30
2017-06-28T22:06:43.539Z,19.20
2017-06-28T22:09:11.052Z,19.20
2017-06-28T22:11:37.575Z,19.10
2017-06-28T22:14:04.027Z,19.10
2017-06-28T22:16:30.537Z,19.10
2017-06-28T22:19:15.443Z,19.10
2017-06-28T22:21:42.062Z,19.10
2017-06-28T22:24:08.528Z,19.10
2017-06-28T22:26:34.999Z,19.10
2017-06-28T22:29:01.547Z,19.10
2017-06-28T22:31:28.037Z,19.10
2017-06-28T22:33:55.327Z,19.10
2017-06-28T22:36:21.824Z,19.10
2017-06-28T22:38:48.319Z,19.10
2017-06-28T22:41:14.839Z,19.10
2017-06-28T22:43:41.320Z,19.10
2017-06-28T22:46:07.945Z,19.20
2017-06-28T22:48:35.176Z,19.20
2017-06-28T22:51:01.680Z,19.20
2017-06-28T22:53:28.288Z,19.20
2017-06-28T22:55:54.827Z,19.20
2017-06-28T22:58:21.301Z,19.30
2017-06-28T23:00:47.818Z,19.20
2017-06-28T23:03:14.296Z,19.30
2017-06-28T23:05:41.537Z,19.30
2017-06-28T23:08:08.016Z,19.30
2017-06-28T23:10:34.621Z,19.40
2017-06-28T23:13:01.835Z,19.40
2017-06-28T23:15:28.306Z,19.40
2017-06-28T23:17:54.796Z,19.40
2017-06-28T23:20:21.280Z,19.40
2017-06-28T23:22:48.065Z,19.40
2017-06-28T23:25:14.530Z,19.30
2017-06-28T23:27:41.758Z,19.30
2017-06-28T23:30:08.303Z,19.30
2017-06-28T23:32:34.797Z,19.30
2017-06-28T23:35:01.346Z,19.30
2017-06-28T23:37:27.933Z,19.20
2017-06-28T23:39:54.407Z,19.20
2017-06-28T23:42:20.864Z,19.20
2017-06-28T23:44:47.573Z,19.10
2017-06-28T23:47:14.050Z,19.10
2017-06-28T23:49:40.547Z,19.00
2017-06-28T23:52:07.191Z,19.00
2017-06-28T23:54:33.677Z,18.90
2017-06-28T23:57:00.145Z,18.90
2017-06-28T23:59:26.679Z,18.80
